Time;durP1;ratioP1;P1;durP2;ratioP2;P2;SDS_P1;SDS_P2;PMS_P1;PMS_P2;Temp;Humidity;BMP_temperature;BMP_pressure;BME280_temperature;BME280_humidity;BME280_pressure;Samples;Min_cycle;Max_cycle;Signal;HPM_P1;HPM_P2
2022/05/22 00:02:08;;;;;;;1.95;0.90;;;;;;;-145.52;100.00;57022.44;5065118;28;20487;-64
2022/05/22 00:04:34;;;;;;;2.70;0.90;;;;;;;-145.52;100.00;57022.44;5082369;28;20039;-64
2022/05/22 00:06:59;;;;;;;1.50;0.85;;;;;;;-145.52;100.00;57022.44;5090243;28;20036;-64
2022/05/22 00:09:28;;;;;;;1.20;0.95;;;;;;;-145.52;100.00;57022.44;5078342;28;20105;-64
2022/05/22 00:11:54;;;;;;;1.83;0.80;;;;;;;-145.52;100.00;57022.44;5074729;28;20044;-63
2022/05/22 00:14:21;;;;;;;2.42;0.70;;;;;;;-145.52;100.00;57022.44;5075765;28;20024;-63
2022/05/22 00:16:47;;;;;;;1.25;0.60;;;;;;;-145.52;100.00;57022.44;5075626;28;20387;-63
2022/05/22 00:19:22;;;;;;;1.65;0.75;;;;;;;-145.52;100.00;57022.44;5073728;28;20119;-64
2022/05/22 00:21:49;;;;;;;2.25;0.75;;;;;;;-145.52;100.00;57022.44;5077261;28;20029;-65
2022/05/22 00:24:17;;;;;;;2.50;1.17;;;;;;;-145.52;100.00;57022.44;5057975;28;20028;-64
2022/05/22 00:26:42;;;;;;;1.55;0.85;;;;;;;-145.52;100.00;57022.44;5094927;28;20491;-64
2022/05/22 00:29:08;;;;;;;1.90;0.77;;;;;;;-145.52;100.00;57022.44;5082960;28;20071;-64
2022/05/22 00:31:33;;;;;;;1.83;0.70;;;;;;;-145.52;100.00;57022.44;5075883;28;20036;-64
2022/05/22 00:33:59;;;;;;;1.77;0.68;;;;;;;-145.52;100.00;57022.44;5096702;28;20064;-64
2022/05/22 00:36:26;;;;;;;3.05;0.80;;;;;;;-145.52;100.00;57022.44;5093098;28;20028;-63
2022/05/22 00:38:52;;;;;;;1.63;0.50;;;;;;;-145.52;100.00;57022.44;5093142;28;20024;-64
2022/05/22 00:41:18;;;;;;;4.55;0.50;;;;;;;-145.52;100.00;57022.44;5097196;28;20369;-64
2022/05/22 00:43:49;;;;;;;2.08;0.90;;;;;;;-145.52;100.00;57022.44;5095456;28;20028;-64
2022/05/22 00:46:17;;;;;;;1.40;0.50;;;;;;;-145.52;100.00;57022.44;5075185;28;20040;-64
2022/05/22 00:48:47;;;;;;;2.05;0.70;;;;;;;-145.52;100.00;57022.44;5075439;28;21102;-64
2022/05/22 00:51:18;;;;;;;2.03;0.57;;;;;;;-145.52;100.00;57022.44;5093112;28;20078;-64
2022/05/22 00:53:49;;;;;;;1.08;0.57;;;;;;;-145.52;100.00;57022.44;5094376;28;20043;-64
2022/05/22 00:56:23;;;;;;;0.90;0.65;;;;;;;-145.52;100.00;57022.44;5092817;28;20391;-64
2022/05/22 00:58:54;;;;;;;0.93;0.63;;;;;;;-145.52;100.00;57022.44;5082132;28;20043;-63
2022/05/22 01:01:20;;;;;;;1.98;0.60;;;;;;;-145.52;100.00;57022.44;5085488;28;20095;-65
2022/05/22 01:03:45;;;;;;;2.05;0.60;;;;;;;-145.52;100.00;57022.44;5086210;28;20361;-64
2022/05/22 01:06:16;;;;;;;2.38;0.70;;;;;;;-145.52;100.00;57022.44;5096468;28;20024;-64
2022/05/22 01:08:43;;;;;;;1.60;0.60;;;;;;;-145.52;100.00;57022.44;5080703;28;20132;-64
2022/05/22 01:11:20;;;;;;;1.45;0.40;;;;;;;-145.52;100.00;57022.44;5074525;28;20039;-64
2022/05/22 01:13:52;;;;;;;1.20;0.60;;;;;;;-145.52;100.00;57022.44;5074768;28;20031;-64
2022/05/22 01:16:19;;;;;;;0.85;0.50;;;;;;;-145.52;100.00;57022.44;5074540;28;20021;-63
2022/05/22 01:18:50;;;;;;;2.80;0.65;;;;;;;-145.52;100.00;57022.44;5072347;28;20060;-64
2022/05/22 01:21:23;;;;;;;2.05;0.63;;;;;;;-145.52;100.00;57022.44;5073594;28;20438;-63
2022/05/22 01:23:50;;;;;;;1.45;0.50;;;;;;;-145.52;100.00;57022.44;5074542;28;20024;-64
2022/05/22 01:26:16;;;;;;;1.35;0.60;;;;;;;-145.52;100.00;57022.44;5074487;28;20024;-64
2022/05/22 01:28:42;;;;;;;1.98;0.60;;;;;;;-145.52;100.00;57022.44;5065407;28;20031;-63
2022/05/22 01:31:08;;;;;;;1.67;0.47;;;;;;;-145.52;100.00;57022.44;5093798;28;20039;-64
2022/05/22 01:33:35;;;;;;;1.30;0.47;;;;;;;-145.52;100.00;57022.44;5082762;28;20042;-64
2022/05/22 01:36:02;;;;;;;0.60;0.50;;;;;;;-145.52;100.00;57022.44;5073290;28;20028;-64
2022/05/22 01:38:28;;;;;;;1.55;0.47;;;;;;;-145.52;100.00;57022.44;5088902;28;20036;-66
2022/05/22 01:40:54;;;;;;;1.23;0.50;;;;;;;-145.52;100.00;57022.44;5089169;28;20032;-63
2022/05/22 01:43:19;;;;;;;1.08;0.38;;;;;;;-145.52;100.00;57022.44;5074109;28;20097;-64
2022/05/22 01:45:45;;;;;;;1.52;0.52;;;;;;;-145.52;100.00;57022.44;5075281;28;20065;-64
2022/05/22 01:48:12;;;;;;;0.60;0.43;;;;;;;-145.52;100.00;57022.44;5071856;28;20031;-64
2022/05/22 01:50:39;;;;;;;1.35;0.50;;;;;;;-145.52;100.00;57022.44;5068311;28;20063;-63
2022/05/22 01:53:05;;;;;;;0.70;0.45;;;;;;;-145.52;100.00;57022.44;5092506;28;20085;-64
2022/05/22 01:55:31;;;;;;;0.82;0.50;;;;;;;-145.52;100.00;57022.44;5094007;28;20067;-63
2022/05/22 01:57:57;;;;;;;0.80;0.40;;;;;;;-145.52;100.00;57022.44;5093993;28;20105;-64
2022/05/22 02:00:24;;;;;;;1.52;0.52;;;;;;;-145.52;100.00;57022.44;5061632;28;20072;-64
2022/05/22 02:02:50;;;;;;;2.28;0.70;;;;;;;-145.52;100.00;57022.44;5053937;28;20087;-63
2022/05/22 02:05:17;;;;;;;0.70;0.40;;;;;;;-145.52;100.00;57022.44;5060898;28;20044;-64
2022/05/22 02:10:27;;;;;;;0.77;0.50;;;;;;;-145.52;100.00;57022.44;5087938;28;20056;-64
2022/05/22 02:12:53;;;;;;;1.83;0.68;;;;;;;-145.52;100.00;57022.44;5074846;28;20032;-63
2022/05/22 02:15:19;;;;;;;0.85;0.60;;;;;;;-145.52;100.00;57022.44;5073708;28;20338;-64
2022/05/22 02:17:45;;;;;;;2.33;0.73;;;;;;;-145.52;100.00;57022.44;5074523;28;20027;-64
2022/05/22 02:20:11;;;;;;;1.30;0.60;;;;;;;-145.52;100.00;57022.44;5072327;28;20382;-63
2022/05/22 02:22:46;;;;;;;1.58;0.68;;;;;;;-145.52;100.00;57022.44;5067147;28;20036;-63
2022/05/22 02:25:16;;;;;;;3.25;0.80;;;;;;;-145.52;100.00;57022.44;5093555;28;20119;-64
2022/05/22 02:27:41;;;;;;;1.02;0.60;;;;;;;-145.52;100.00;57022.44;5088838;28;20456;-64
2022/05/22 02:30:09;;;;;;;2.53;0.80;;;;;;;-145.52;100.00;57022.44;5089513;28;20058;-64
2022/05/22 02:32:37;;;;;;;2.45;0.82;;;;;;;-145.52;100.00;57022.44;5092853;28;20032;-64
2022/05/22 02:35:07;;;;;;;1.10;0.60;;;;;;;-145.52;100.00;57022.44;5060401;28;20034;-64
2022/05/22 02:37:54;;;;;;;1.50;0.70;;;;;;;-145.52;100.00;57022.44;5082629;28;20111;-65
2022/05/22 02:40:22;;;;;;;1.20;0.70;;;;;;;-145.52;100.00;57022.44;5084962;28;20065;-64
2022/05/22 02:42:50;;;;;;;1.02;0.70;;;;;;;-145.52;100.00;57022.44;5087733;28;20031;-64
2022/05/22 02:45:19;;;;;;;1.35;0.70;;;;;;;-145.52;100.00;57022.44;5091381;28;20038;-64
2022/05/22 02:47:44;;;;;;;3.03;1.10;;;;;;;-145.52;100.00;57022.44;5076486;28;20024;-64
2022/05/22 02:50:11;;;;;;;1.30;0.70;;;;;;;-145.52;100.00;57022.44;5092354;28;20036;-64
2022/05/22 02:52:37;;;;;;;1.73;0.90;;;;;;;-145.52;100.00;57022.44;5083691;28;20042;-65
2022/05/22 02:55:04;;;;;;;3.00;1.05;;;;;;;-145.52;100.00;57022.44;5052761;28;20040;-64
2022/05/22 02:57:32;;;;;;;3.03;1.10;;;;;;;-145.52;100.00;57022.44;5047459;28;20037;-64
2022/05/22 02:59:58;;;;;;;1.52;0.98;;;;;;;-145.52;100.00;57022.44;5071833;28;20036;-64
2022/05/22 03:02:23;;;;;;;2.83;1.35;;;;;;;-145.52;100.00;57022.44;5075938;28;20040;-64
2022/05/22 03:04:48;;;;;;;4.55;1.00;;;;;;;-145.52;100.00;57022.44;5074049;28;20028;-64
2022/05/22 03:07:17;;;;;;;3.10;1.10;;;;;;;-145.52;100.00;57022.44;5056046;28;20062;-64
2022/05/22 03:09:44;;;;;;;1.17;0.75;;;;;;;-145.52;100.00;57022.44;5076892;28;20051;-64
2022/05/22 03:12:14;;;;;;;1.95;0.70;;;;;;;-145.52;100.00;57022.44;5090589;28;20080;-65
2022/05/22 03:14:48;;;;;;;1.50;0.90;;;;;;;-145.52;100.00;57022.44;5092760;28;20040;-64
2022/05/22 03:17:14;;;;;;;2.17;0.70;;;;;;;-145.52;100.00;57022.44;5090451;28;20039;-64
2022/05/22 03:19:40;;;;;;;1.48;0.80;;;;;;;-145.52;100.00;57022.44;5091925;28;20131;-64
2022/05/22 03:22:07;;;;;;;1.65;0.82;;;;;;;-145.52;100.00;57022.44;5073678;28;20111;-65
2022/05/22 03:24:32;;;;;;;1.38;0.75;;;;;;;-145.52;100.00;57022.44;5055000;28;20112;-65
2022/05/22 03:27:01;;;;;;;1.58;1.00;;;;;;;-145.52;100.00;57022.44;5087601;28;20139;-64
2022/05/22 03:29:27;;;;;;;1.95;0.90;;;;;;;-145.52;100.00;57022.44;5093608;28;20024;-64
2022/05/22 03:31:52;;;;;;;3.75;1.42;;;;;;;-145.52;100.00;57022.44;5083863;28;20482;-64
2022/05/22 03:34:18;;;;;;;2.13;1.08;;;;;;;-145.52;100.00;57022.44;5093593;28;20031;-64
2022/05/22 03:36:43;;;;;;;2.35;1.40;;;;;;;-145.52;100.00;57022.44;5090270;28;20505;-64
2022/05/22 03:39:09;;;;;;;2.05;1.20;;;;;;;-145.52;100.00;57022.44;5071051;28;20451;-65
2022/05/22 03:41:36;;;;;;;1.83;1.10;;;;;;;-145.52;100.00;57022.44;5082609;28;20029;-63
2022/05/22 03:44:02;;;;;;;2.75;1.10;;;;;;;-145.52;100.00;57022.44;5074927;28;20028;-64
2022/05/22 03:46:28;;;;;;;1.52;1.02;;;;;;;-145.52;100.00;57022.44;5082106;28;20028;-64
2022/05/22 03:48:53;;;;;;;2.92;1.30;;;;;;;-145.52;100.00;57022.44;5096501;28;20036;-63
2022/05/22 03:51:19;;;;;;;3.10;1.17;;;;;;;-145.52;100.00;57022.44;5081373;28;20093;-63
2022/05/22 03:53:44;;;;;;;2.38;1.38;;;;;;;-145.52;100.00;57022.44;5097741;28;20032;-64
2022/05/22 03:56:12;;;;;;;2.45;0.90;;;;;;;-145.52;100.00;57022.44;5095686;28;20101;-63
2022/05/22 03:58:38;;;;;;;2.22;1.20;;;;;;;-145.52;100.00;57022.44;5074051;28;20040;-64
2022/05/22 04:01:04;;;;;;;1.52;1.00;;;;;;;-145.52;100.00;57022.44;5079997;28;20059;-64
2022/05/22 04:03:30;;;;;;;2.80;1.50;;;;;;;-145.52;100.00;57022.44;5076362;28;20069;-64
2022/05/22 04:05:55;;;;;;;2.60;1.08;;;;;;;-145.52;100.00;57022.44;5074828;28;20044;-64
2022/05/22 04:08:21;;;;;;;2.30;1.00;;;;;;;-145.52;100.00;57022.44;5074872;28;20041;-64
2022/05/22 04:10:47;;;;;;;1.80;0.98;;;;;;;-145.52;100.00;57022.44;5075837;28;20075;-64
2022/05/22 04:13:13;;;;;;;2.80;1.50;;;;;;;-145.52;100.00;57022.44;5074766;28;20123;-64
2022/05/22 04:15:38;;;;;;;3.10;1.25;;;;;;;-145.52;100.00;57022.44;5076983;28;20444;-64
2022/05/22 04:18:04;;;;;;;2.05;1.38;;;;;;;-145.52;100.00;57022.44;5074629;28;20395;-63
2022/05/22 04:20:31;;;;;;;3.80;1.33;;;;;;;-145.52;100.00;57022.44;5055277;28;20120;-61
2022/05/22 04:25:55;;;;;;;2.08;1.17;;;;;;;-145.52;100.00;57022.44;5076742;28;20094;-62
2022/05/22 04:28:22;;;;;;;3.13;1.70;;;;;;;-145.52;100.00;57022.44;5075018;28;20123;-62
2022/05/22 04:30:47;;;;;;;1.95;1.30;;;;;;;-145.52;100.00;57022.44;5057854;28;20033;-62
2022/05/22 04:33:13;;;;;;;2.95;1.25;;;;;;;-145.52;100.00;57022.44;5097294;28;20482;-61
2022/05/22 04:35:38;;;;;;;1.88;1.27;;;;;;;-145.52;100.00;57022.44;5096759;28;20077;-62
2022/05/22 04:38:04;;;;;;;2.00;1.40;;;;;;;-145.52;100.00;57022.44;5094466;28;20040;-61
2022/05/22 04:40:29;;;;;;;2.78;1.52;;;;;;;-145.52;100.00;57022.44;5085903;28;20032;-62
2022/05/22 04:42:55;;;;;;;2.45;1.20;;;;;;;-145.52;100.00;57022.44;5096493;28;20055;-61
2022/05/22 04:45:21;;;;;;;2.67;1.35;;;;;;;-145.52;100.00;57022.44;5087923;28;20024;-62
2022/05/22 04:47:47;;;;;;;2.92;1.33;;;;;;;-145.52;100.00;57022.44;5075085;28;20032;-62
2022/05/22 04:50:14;;;;;;;1.83;1.20;;;;;;;-145.52;100.00;57022.44;5075041;28;20549;-62
2022/05/22 04:52:40;;;;;;;2.75;1.40;;;;;;;-145.52;100.00;57022.44;5056076;28;20130;-62
2022/05/22 04:55:07;;;;;;;2.75;1.50;;;;;;;-145.52;100.00;57022.44;5088374;28;20507;-62
2022/05/22 04:57:32;;;;;;;2.90;1.48;;;;;;;-145.52;100.00;57022.44;5056750;28;20123;-62
2022/05/22 04:59:58;;;;;;;2.17;1.30;;;;;;;-145.52;100.00;57022.44;5075315;28;20531;-62
2022/05/22 05:02:23;;;;;;;2.58;1.55;;;;;;;-145.52;100.00;57022.44;5073893;28;20537;-62
2022/05/22 05:04:53;;;;;;;4.70;1.52;;;;;;;-145.52;100.00;57022.44;5076354;28;20068;-61
2022/05/22 05:07:18;;;;;;;2.83;1.50;;;;;;;-145.52;100.00;57022.44;5074579;28;20025;-62
2022/05/22 05:09:45;;;;;;;3.97;1.50;;;;;;;-145.52;100.00;57022.44;5072704;28;20055;-60
2022/05/22 05:12:12;;;;;;;1.95;1.40;;;;;;;-145.52;100.00;57022.44;5076813;28;20122;-61
2022/05/22 05:14:37;;;;;;;2.10;1.40;;;;;;;-145.52;100.00;57022.44;5074770;28;20033;-61
2022/05/22 05:17:10;;;;;;;2.33;1.58;;;;;;;-145.52;100.00;57022.44;5075294;28;20313;-61
2022/05/22 05:19:36;;;;;;;1.92;1.23;;;;;;;-145.52;100.00;57022.44;5074892;28;20047;-62
2022/05/22 05:22:02;;;;;;;2.50;1.50;;;;;;;-145.52;100.00;57022.44;5074044;28;20496;-62
2022/05/22 05:24:28;;;;;;;1.75;1.33;;;;;;;-145.52;100.00;57022.44;5073483;28;20039;-62
2022/05/22 05:26:55;;;;;;;2.60;1.30;;;;;;;-145.52;100.00;57022.44;5040457;28;20032;-62
2022/05/22 05:29:21;;;;;;;3.10;1.50;;;;;;;-145.52;100.00;57022.44;5073528;28;20036;-61
2022/05/22 05:31:47;;;;;;;2.13;1.30;;;;;;;-145.52;100.00;57022.44;5077102;28;20033;-61
2022/05/22 05:34:13;;;;;;;3.92;1.38;;;;;;;-145.52;100.00;57022.44;5045150;28;20458;-63
2022/05/22 05:36:40;;;;;;;2.88;1.38;;;;;;;-145.52;100.00;57022.44;5072151;28;20037;-64
2022/05/22 05:39:07;;;;;;;2.97;1.15;;;;;;;-145.52;100.00;57022.44;5073432;28;20043;-63
2022/05/22 05:41:35;;;;;;;1.40;0.95;;;;;;;-145.52;100.00;57022.44;5072122;28;20032;-61
2022/05/22 05:44:05;;;;;;;1.55;1.00;;;;;;;-145.52;100.00;57022.44;5073035;28;20041;-62
2022/05/22 05:46:36;;;;;;;1.98;1.05;;;;;;;-145.52;100.00;57022.44;5074404;28;20035;-62
2022/05/22 05:49:03;;;;;;;2.50;1.42;;;;;;;-145.52;100.00;57022.44;5067711;28;20122;-63
2022/05/22 05:51:29;;;;;;;1.77;1.20;;;;;;;-145.52;100.00;57022.44;5055684;28;20028;-63
2022/05/22 05:53:55;;;;;;;2.03;1.30;;;;;;;-145.52;100.00;57022.44;5073095;28;20032;-66
2022/05/22 05:56:21;;;;;;;1.98;1.10;;;;;;;-145.52;100.00;57022.44;5074388;28;20044;-62
2022/05/22 05:58:46;;;;;;;2.63;1.25;;;;;;;-145.52;100.00;57022.44;5071906;28;20044;-63
2022/05/22 06:01:16;;;;;;;3.20;1.25;;;;;;;-145.52;100.00;57022.44;5070979;28;20049;-62
2022/05/22 06:03:42;;;;;;;2.13;1.08;;;;;;;-145.52;100.00;57022.44;5072183;28;20045;-62
2022/05/22 06:06:09;;;;;;;2.83;1.10;;;;;;;-145.52;100.00;57022.44;5071683;28;20036;-61
2022/05/22 06:08:35;;;;;;;1.80;1.10;;;;;;;-145.52;100.00;57022.44;5077550;28;20054;-62
2022/05/22 06:11:01;;;;;;;2.42;1.20;;;;;;;-145.52;100.00;57022.44;5065422;28;20468;-61
2022/05/22 06:13:26;;;;;;;2.47;1.13;;;;;;;-145.52;100.00;57022.44;5072596;28;20113;-61
2022/05/22 06:15:52;;;;;;;2.08;1.20;;;;;;;-145.52;100.00;57022.44;5053158;28;20447;-62
2022/05/22 06:18:21;;;;;;;2.78;1.33;;;;;;;-145.52;100.00;57022.44;5071736;28;20032;-61
2022/05/22 06:20:47;;;;;;;2.50;1.40;;;;;;;-145.52;100.00;57022.44;5072516;28;20040;-61
2022/05/22 06:23:13;;;;;;;2.03;1.20;;;;;;;-145.52;100.00;57022.44;5073643;28;20032;-62
2022/05/22 06:25:41;;;;;;;1.75;1.00;;;;;;;-145.52;100.00;57022.44;5073325;28;20116;-61
2022/05/22 06:28:06;;;;;;;1.63;1.02;;;;;;;-145.52;100.00;57022.44;5071969;28;20384;-61
2022/05/22 06:30:32;;;;;;;1.98;1.00;;;;;;;-145.52;100.00;57022.44;5071589;28;20040;-61
2022/05/22 06:33:00;;;;;;;2.80;1.20;;;;;;;-145.52;100.00;57022.44;5072160;28;20435;-60
2022/05/22 06:35:25;;;;;;;2.38;1.27;;;;;;;-145.52;100.00;57022.44;5076625;28;20119;-63
2022/05/22 06:37:51;;;;;;;2.10;1.40;;;;;;;-145.52;100.00;57022.44;5071054;28;20427;-61
2022/05/22 06:40:16;;;;;;;3.05;1.23;;;;;;;-145.52;100.00;57022.44;5070436;28;20078;-62
2022/05/22 06:42:44;;;;;;;1.70;1.20;;;;;;;-145.52;100.00;57022.44;5072664;28;20428;-62
2022/05/22 06:45:23;;;;;;;3.38;1.40;;;;;;;-145.52;100.00;57022.44;5071809;28;20423;-62
2022/05/22 06:47:49;;;;;;;2.40;0.95;;;;;;;-145.52;100.00;57022.44;5073083;28;20021;-62
2022/05/22 06:50:18;;;;;;;2.38;1.25;;;;;;;-145.52;100.00;57022.44;5071944;28;20459;-61
2022/05/22 06:52:44;;;;;;;1.42;1.10;;;;;;;-145.52;100.00;57022.44;5071378;28;20036;-62
2022/05/22 06:55:11;;;;;;;2.90;1.23;;;;;;;-145.52;100.00;57022.44;5072103;28;20032;-62
2022/05/22 06:57:37;;;;;;;2.00;1.08;;;;;;;-145.52;100.00;57022.44;5071432;28;20052;-62
2022/05/22 07:00:06;;;;;;;3.55;1.40;;;;;;;-145.52;100.00;57022.44;5072745;28;20037;-61
2022/05/22 07:02:36;;;;;;;3.22;1.35;;;;;;;-145.52;100.00;57022.44;5072801;28;20103;-62
2022/05/22 07:05:03;;;;;;;4.20;1.30;;;;;;;-145.52;100.00;57022.44;5070450;28;20029;-62
2022/05/22 07:07:28;;;;;;;3.15;1.30;;;;;;;-145.52;100.00;57022.44;5070767;28;20032;-63
2022/05/22 07:09:55;;;;;;;3.65;1.45;;;;;;;-145.52;100.00;57022.44;5067676;28;20454;-61
2022/05/22 07:12:21;;;;;;;2.40;1.25;;;;;;;-145.52;100.00;57022.44;5070408;28;20496;-62
2022/05/22 07:14:50;;;;;;;2.55;1.15;;;;;;;-145.52;100.00;57022.44;5070219;28;20060;-62
2022/05/22 07:17:21;;;;;;;2.33;1.38;;;;;;;-145.52;100.00;57022.44;5071001;28;20082;-62
2022/05/22 07:19:47;;;;;;;2.75;1.23;;;;;;;-145.52;100.00;57022.44;5054322;28;20086;-62
2022/05/22 07:22:12;;;;;;;3.35;1.35;;;;;;;-145.52;100.00;57022.44;5072632;28;20037;-62
2022/05/22 07:24:38;;;;;;;2.92;1.45;;;;;;;-145.52;100.00;57022.44;5072380;28;20116;-62
2022/05/22 07:27:04;;;;;;;2.85;1.40;;;;;;;-145.52;100.00;57022.44;5036015;28;20036;-62
2022/05/22 07:29:30;;;;;;;5.68;1.40;;;;;;;-145.52;100.00;57022.44;5072405;28;20119;-62
2022/05/22 07:31:56;;;;;;;2.10;1.20;;;;;;;-145.52;100.00;57022.44;5072711;28;20112;-62
2022/05/22 07:34:24;;;;;;;2.05;1.00;;;;;;;-145.52;100.00;57022.44;5071346;28;20506;-62
2022/05/22 07:36:57;;;;;;;2.20;1.42;;;;;;;-145.52;100.00;57022.44;5072624;28;20063;-62
2022/05/22 07:39:23;;;;;;;2.08;1.42;;;;;;;-145.52;100.00;57022.44;5072638;28;20032;-62
2022/05/22 07:41:49;;;;;;;1.83;1.38;;;;;;;-145.52;100.00;57022.44;5071194;28;20070;-61
2022/05/22 07:44:14;;;;;;;2.92;1.20;;;;;;;-145.52;100.00;57022.44;5072680;28;20028;-62
2022/05/22 07:46:40;;;;;;;3.63;1.42;;;;;;;-145.52;100.00;57022.44;5074478;28;20039;-62
2022/05/22 07:49:05;;;;;;;2.67;1.45;;;;;;;-145.52;100.00;57022.44;5070241;28;20033;-61
2022/05/22 07:51:31;;;;;;;2.53;1.20;;;;;;;-145.52;100.00;57022.44;5071939;28;20059;-61
2022/05/22 07:53:56;;;;;;;2.72;1.45;;;;;;;-145.52;100.00;57022.44;5073326;28;21354;-63
2022/05/22 07:56:22;;;;;;;2.75;1.50;;;;;;;-145.52;100.00;57022.44;5073886;28;20031;-63
2022/05/22 07:58:52;;;;;;;2.15;1.27;;;;;;;-145.52;100.00;57022.44;5070769;28;20097;-63
2022/05/22 08:01:18;;;;;;;2.42;1.17;;;;;;;-145.52;100.00;57022.44;5071184;28;20476;-62
2022/05/22 08:03:45;;;;;;;2.53;1.20;;;;;;;-145.52;100.00;57022.44;5070799;28;20032;-63
2022/05/22 08:06:11;;;;;;;3.03;1.50;;;;;;;-145.52;100.00;57022.44;5076006;28;20025;-62
2022/05/22 08:08:37;;;;;;;2.35;1.40;;;;;;;-145.52;100.00;57022.44;5070967;28;20040;-62
2022/05/22 08:11:03;;;;;;;3.00;1.30;;;;;;;-145.52;100.00;57022.44;5066968;28;20028;-62
2022/05/22 08:13:28;;;;;;;2.15;1.30;;;;;;;-145.52;100.00;57022.44;5069061;28;20024;-64
2022/05/22 08:15:54;;;;;;;3.67;1.20;;;;;;;-145.52;100.00;57022.44;5071674;28;20383;-64
2022/05/22 08:18:20;;;;;;;2.47;1.40;;;;;;;-145.52;100.00;57022.44;5072090;28;20036;-64
2022/05/22 08:20:47;;;;;;;2.88;1.30;;;;;;;-145.52;100.00;57022.44;5071481;28;20041;-64
2022/05/22 08:23:19;;;;;;;2.28;1.13;;;;;;;-145.52;100.00;57022.44;5070716;28;20056;-64
2022/05/22 08:25:47;;;;;;;2.55;1.60;;;;;;;-145.52;100.00;57022.44;5070679;28;20497;-64
2022/05/22 08:28:12;;;;;;;1.42;1.02;;;;;;;-145.52;100.00;57022.44;5071201;28;20044;-64
2022/05/22 08:30:39;;;;;;;3.42;1.40;;;;;;;-145.52;100.00;57022.44;5073947;28;20029;-64
2022/05/22 08:33:04;;;;;;;2.38;1.40;;;;;;;-145.52;100.00;57022.44;5053708;28;20741;-64
2022/05/22 08:35:33;;;;;;;3.22;1.80;;;;;;;-145.52;100.00;57022.44;5059200;28;20451;-64
2022/05/22 08:38:00;;;;;;;3.03;1.10;;;;;;;-145.52;100.00;57022.44;5074747;28;20044;-64
2022/05/22 08:40:53;;;;;;;3.00;1.90;;;;;;;-145.52;100.00;57022.44;5072668;28;20029;-63
2022/05/22 08:43:43;;;;;;;4.45;1.55;;;;;;;-145.52;100.00;57022.44;5062064;28;20044;-63
2022/05/22 08:46:28;;;;;;;2.10;1.33;;;;;;;-145.52;100.00;57022.44;5068530;28;20033;-63
2022/05/22 08:48:57;;;;;;;2.28;1.40;;;;;;;-145.52;100.00;57022.44;5074694;28;20118;-63
2022/05/22 08:51:39;;;;;;;2.20;1.10;;;;;;;-145.52;100.00;57022.44;5076276;28;20044;-64
2022/05/22 08:54:23;;;;;;;2.55;1.67;;;;;;;-145.52;100.00;57022.44;5076289;28;20052;-64
2022/05/22 08:59:39;;;;;;;2.17;1.30;;;;;;;-145.52;100.00;57022.44;5076318;28;20447;-64
2022/05/22 09:02:23;;;;;;;3.03;1.33;;;;;;;-145.52;100.00;57022.44;5075143;28;20061;-64
2022/05/22 09:05:01;;;;;;;3.95;1.60;;;;;;;-145.52;100.00;57022.44;5075808;28;20055;-65
2022/05/22 09:07:55;;;;;;;2.63;1.30;;;;;;;-145.52;100.00;57022.44;5074555;28;20480;-64
2022/05/22 09:10:47;;;;;;;3.17;1.58;;;;;;;-145.52;100.00;57022.44;5074174;28;20075;-65
2022/05/22 09:13:24;;;;;;;3.78;1.90;;;;;;;-145.52;100.00;57022.44;5075788;28;20040;-65
2022/05/22 09:16:00;;;;;;;4.50;1.60;;;;;;;-145.52;100.00;57022.44;5075575;28;20027;-64
2022/05/22 09:18:37;;;;;;;2.45;1.42;;;;;;;-145.52;100.00;57022.44;5074741;28;20502;-64
2022/05/22 09:21:13;;;;;;;1.80;1.20;;;;;;;-145.52;100.00;57022.44;5075797;28;20039;-64
2022/05/22 09:24:00;;;;;;;3.50;1.35;;;;;;;-145.52;100.00;57022.44;5074325;28;20193;-64
2022/05/22 09:26:41;;;;;;;1.95;1.27;;;;;;;-145.52;100.00;57022.44;5074741;28;20043;-65
2022/05/22 09:29:16;;;;;;;2.40;1.50;;;;;;;-145.52;100.00;57022.44;5075509;28;20047;-65
2022/05/22 09:32:19;;;;;;;2.55;1.70;;;;;;;-145.52;100.00;57022.44;5074521;28;20025;-64
2022/05/22 09:35:03;;;;;;;1.70;1.20;;;;;;;-145.52;100.00;57022.44;5075213;28;20024;-65
2022/05/22 09:37:55;;;;;;;1.85;1.20;;;;;;;-145.52;100.00;57022.44;5074248;28;20038;-66
2022/05/22 09:40:43;;;;;;;4.05;1.50;;;;;;;-145.52;100.00;57022.44;5073032;28;20036;-64
2022/05/22 09:43:14;;;;;;;2.13;1.10;;;;;;;-145.52;100.00;57022.44;5075517;28;20032;-65
2022/05/22 09:45:58;;;;;;;3.35;1.63;;;;;;;-145.52;100.00;57022.44;5074957;28;20036;-65
2022/05/22 09:48:34;;;;;;;3.03;1.63;;;;;;;-145.52;100.00;57022.44;5074112;28;20032;-65
2022/05/22 09:51:08;;;;;;;2.67;1.30;;;;;;;-145.52;100.00;57022.44;5074120;28;20128;-65
2022/05/22 09:53:52;;;;;;;3.28;1.60;;;;;;;-145.52;100.00;57022.44;5073862;28;20042;-65
2022/05/22 09:57:01;;;;;;;2.75;1.40;;;;;;;-145.52;100.00;57022.44;5075244;28;20037;-65
2022/05/22 10:00:03;;;;;;;2.22;1.33;;;;;;;-145.52;100.00;57022.44;5074106;28;20083;-64
2022/05/22 10:02:38;;;;;;;2.08;1.20;;;;;;;-145.52;100.00;57022.44;5073688;28;20116;-65
2022/05/22 10:05:32;;;;;;;3.78;1.50;;;;;;;-145.52;100.00;57022.44;5075142;28;20040;-64
2022/05/22 10:08:06;;;;;;;2.80;1.38;;;;;;;-145.52;100.00;57022.44;5064425;28;20036;-65
2022/05/22 10:11:04;;;;;;;3.28;1.30;;;;;;;-145.52;100.00;57022.44;5073421;28;20051;-65
2022/05/22 10:14:21;;;;;;;4.28;1.30;;;;;;;-145.52;100.00;57022.44;5073483;28;20085;-65
2022/05/22 10:17:28;;;;;;;1.77;1.30;;;;;;;-145.52;100.00;57022.44;5052296;28;20071;-64
2022/05/22 10:20:12;;;;;;;2.20;0.90;;;;;;;-145.52;100.00;57022.44;5072889;28;20097;-64
2022/05/22 10:22:56;;;;;;;2.70;1.40;;;;;;;-145.52;100.00;57022.44;5074841;28;20064;-64
2022/05/22 10:25:36;;;;;;;3.15;1.60;;;;;;;-145.52;100.00;57022.44;5074469;28;20062;-64
2022/05/22 10:28:16;;;;;;;2.22;1.42;;;;;;;-145.52;100.00;57022.44;5074316;28;20035;-64
2022/05/22 10:31:04;;;;;;;3.03;1.80;;;;;;;-145.52;100.00;57022.44;5073298;28;20020;-65
2022/05/22 10:33:41;;;;;;;3.08;1.75;;;;;;;-145.52;100.00;57022.44;5074540;28;20025;-64
2022/05/22 10:36:22;;;;;;;3.35;1.42;;;;;;;-145.52;100.00;57022.44;5073236;28;20490;-65
2022/05/22 10:38:50;;;;;;;7.35;3.15;;;;;;;-145.52;100.00;57022.44;5073003;28;20037;-64
2022/05/22 10:44:08;;;;;;;8.38;3.30;;;;;;;-145.52;100.00;57022.44;5074202;28;20555;-65
2022/05/22 10:46:53;;;;;;;7.13;2.50;;;;;;;-145.52;100.00;57022.44;5074149;28;20029;-65
2022/05/22 10:49:25;;;;;;;3.80;1.40;;;;;;;-145.52;100.00;57022.44;5074262;28;20082;-65
2022/05/22 10:52:02;;;;;;;4.57;1.90;;;;;;;-145.52;100.00;57022.44;5074133;28;20468;-65
2022/05/22 10:54:33;;;;;;;6.47;2.30;;;;;;;-145.52;100.00;57022.44;5072884;28;20071;-66
2022/05/22 10:57:18;;;;;;;3.53;1.40;;;;;;;-145.52;100.00;57022.44;5074270;28;20029;-64
2022/05/22 10:59:45;;;;;;;4.15;1.80;;;;;;;-145.52;100.00;57022.44;5074355;28;20036;-64
2022/05/22 11:02:17;;;;;;;4.07;1.50;;;;;;;-145.52;100.00;57022.44;5073676;28;20059;-64
2022/05/22 11:04:44;;;;;;;4.93;2.00;;;;;;;-145.52;100.00;57022.44;5072737;28;20118;-65
2022/05/22 11:07:11;;;;;;;3.00;1.27;;;;;;;-145.52;100.00;57022.44;5072508;28;20040;-65
2022/05/22 11:09:49;;;;;;;5.13;1.50;;;;;;;-145.52;100.00;57022.44;5055429;28;20049;-64
2022/05/22 11:12:26;;;;;;;3.35;1.73;;;;;;;-145.52;100.00;57022.44;5072280;28;20029;-65
2022/05/22 11:15:03;;;;;;;3.28;1.40;;;;;;;-145.52;100.00;57022.44;5073930;28;20112;-65
2022/05/22 11:17:28;;;;;;;3.08;1.33;;;;;;;-145.52;100.00;57022.44;5073634;28;20036;-65
2022/05/22 11:19:57;;;;;;;3.80;1.50;;;;;;;-145.52;100.00;57022.44;5073595;28;20045;-65
2022/05/22 11:22:27;;;;;;;3.40;1.70;;;;;;;-145.52;100.00;57022.44;5072282;28;20039;-65
2022/05/22 11:25:08;;;;;;;5.53;1.60;;;;;;;-145.52;100.00;57022.44;5072852;28;20032;-64
2022/05/22 11:27:57;;;;;;;2.90;1.60;;;;;;;-145.52;100.00;57022.44;5072839;28;20032;-65
2022/05/22 11:30:52;;;;;;;6.07;1.60;;;;;;;-145.52;100.00;57022.44;5072234;28;20667;-64
2022/05/22 11:33:20;;;;;;;3.33;1.65;;;;;;;-145.52;100.00;57022.44;5073358;28;20361;-64
2022/05/22 11:36:04;;;;;;;4.25;1.40;;;;;;;-145.52;100.00;57022.44;5073469;28;20424;-65